createdAt,value
2019-02-21T00:00:48.299Z,7.30
2019-02-21T00:03:14.220Z,7.30
2019-02-21T00:05:40.028Z,7.31
2019-02-21T00:08:05.798Z,7.32
2019-02-21T00:10:31.569Z,7.29
2019-02-21T00:12:57.442Z,7.37
2019-02-21T00:15:23.201Z,7.39
2019-02-21T00:17:48.977Z,7.40
2019-02-21T00:20:14.734Z,7.40
2019-02-21T00:22:40.521Z,7.39
2019-02-21T00:25:06.269Z,7.35
2019-02-21T00:27:32.033Z,7.45
2019-02-21T00:29:57.795Z,7.40
2019-02-21T00:32:23.541Z,7.46
2019-02-21T00:34:49.311Z,7.42
2019-02-21T00:37:15.065Z,7.49
2019-02-21T00:39:40.856Z,7.49
2019-02-21T00:42:06.624Z,7.49
2019-02-21T00:44:32.396Z,7.49
2019-02-21T00:46:58.129Z,7.47
2019-02-21T00:49:23.909Z,7.50
2019-02-21T00:51:49.677Z,7.52
2019-02-21T00:54:15.439Z,7.53
2019-02-21T00:56:41.208Z,7.47
2019-02-21T00:59:06.965Z,7.44
2019-02-21T01:01:32.713Z,7.46
2019-02-21T01:03:58.480Z,7.43
2019-02-21T01:06:24.229Z,7.41
2019-02-21T01:08:50.010Z,7.37
2019-02-21T01:11:15.870Z,7.36
2019-02-21T01:13:41.635Z,7.35
2019-02-21T01:16:07.396Z,7.41
2019-02-21T01:18:33.166Z,7.38
2019-02-21T01:20:58.928Z,7.41
2019-02-21T01:23:24.672Z,7.37
2019-02-21T01:25:50.430Z,7.36
2019-02-21T01:28:16.177Z,7.41
2019-02-21T01:30:41.950Z,7.40
2019-02-21T01:33:07.712Z,7.38
2019-02-21T01:35:33.478Z,7.48
2019-02-21T01:37:59.226Z,7.50
2019-02-21T01:40:24.986Z,7.51
2019-02-21T01:42:50.740Z,7.51
2019-02-21T01:45:16.503Z,7.52
2019-02-21T01:47:42.250Z,7.50
2019-02-21T01:50:08.029Z,7.49
2019-02-21T01:52:33.818Z,7.49
2019-02-21T01:54:59.586Z,7.50
2019-02-21T01:57:25.340Z,7.50
2019-02-21T01:59:51.096Z,7.57
2019-02-21T02:02:16.864Z,7.52
2019-02-21T02:04:42.633Z,7.59
2019-02-21T02:07:08.396Z,7.57
2019-02-21T02:09:34.174Z,7.58
2019-02-21T02:11:59.928Z,7.59
2019-02-21T02:14:25.691Z,7.61
2019-02-21T02:16:51.462Z,7.58
2019-02-21T02:19:17.302Z,7.59
2019-02-21T02:21:43.107Z,7.59
2019-02-21T02:24:08.854Z,7.60
2019-02-21T02:26:34.617Z,7.61
2019-02-21T02:29:00.375Z,7.57
2019-02-21T02:31:26.147Z,7.58
2019-02-21T02:33:51.926Z,7.56
2019-02-21T02:36:17.763Z,7.56
2019-02-21T02:38:43.502Z,7.51
2019-02-21T02:41:09.282Z,7.51
2019-02-21T02:43:35.032Z,7.46
2019-02-21T02:46:00.812Z,7.42
2019-02-21T02:48:26.566Z,7.41
2019-02-21T02:50:52.370Z,7.32
2019-02-21T02:53:18.141Z,7.29
2019-02-21T02:55:43.929Z,7.34
2019-02-21T02:58:09.699Z,7.31
2019-02-21T03:00:35.470Z,7.34
2019-02-21T03:03:01.229Z,7.29
2019-02-21T03:05:26.994Z,7.29
2019-02-21T03:07:52.748Z,7.26
2019-02-21T03:10:18.503Z,7.25
2019-02-21T03:12:44.250Z,7.23
2019-02-21T03:15:10.012Z,7.24
2019-02-21T03:17:35.762Z,7.26
2019-02-21T03:20:01.518Z,7.23
2019-02-21T03:22:27.285Z,7.14
2019-02-21T03:24:53.044Z,7.17
2019-02-21T03:27:18.806Z,7.18
2019-02-21T03:29:44.554Z,7.14
2019-02-21T03:32:10.384Z,7.10
2019-02-21T03:34:36.083Z,7.03
2019-02-21T03:37:01.875Z,7.03
2019-02-21T03:39:27.635Z,7.01
2019-02-21T03:41:53.424Z,7.02
2019-02-21T03:44:19.174Z,6.99
2019-02-21T03:46:44.947Z,7.03
2019-02-21T03:49:10.718Z,7.00
2019-02-21T03:51:36.495Z,7.01
2019-02-21T03:54:02.246Z,6.98
2019-02-21T03:56:28.012Z,6.99
2019-02-21T03:58:53.779Z,6.95
2019-02-21T04:01:19.673Z,6.96
2019-02-21T04:03:45.418Z,6.96
2019-02-21T04:06:11.203Z,6.94
2019-02-21T04:08:36.962Z,6.95
2019-02-21T04:11:02.726Z,6.95
2019-02-21T04:13:28.475Z,6.94
2019-02-21T04:15:54.342Z,6.94
2019-02-21T04:18:20.102Z,6.90
2019-02-21T04:20:45.841Z,6.92
2019-02-21T04:23:11.606Z,6.91
2019-02-21T04:25:37.350Z,6.91
2019-02-21T04:28:03.121Z,6.90
2019-02-21T04:30:28.875Z,6.90
2019-02-21T04:32:54.642Z,6.86
2019-02-21T04:35:20.390Z,6.84
2019-02-21T04:37:46.150Z,6.81
2019-02-21T04:40:11.921Z,6.81
2019-02-21T04:42:38.185Z,6.82
2019-02-21T04:45:04.838Z,6.82
2019-02-21T04:47:30.683Z,6.85
2019-02-21T04:49:56.456Z,6.81
2019-02-21T04:52:22.233Z,6.77
2019-02-21T04:54:47.993Z,6.81
2019-02-21T04:57:13.758Z,6.69
2019-02-21T04:59:39.513Z,6.75
2019-02-21T05:02:05.376Z,6.76
2019-02-21T05:04:31.128Z,6.74
2019-02-21T05:06:56.997Z,6.73
2019-02-21T05:09:22.735Z,6.72
2019-02-21T05:11:48.497Z,6.67
2019-02-21T05:14:14.246Z,6.68
2019-02-21T05:16:40.036Z,6.65
2019-02-21T05:19:05.772Z,6.59
2019-02-21T05:21:31.527Z,6.52
2019-02-21T05:23:57.291Z,6.48
2019-02-21T05:26:27.713Z,6.42
2019-02-21T05:28:53.479Z,6.36
2019-02-21T05:31:32.980Z,6.32
2019-02-21T05:34:00.681Z,6.35
2019-02-21T05:36:28.297Z,6.39
2019-02-21T05:38:55.972Z,6.41
2019-02-21T05:41:29.138Z,6.45
2019-02-21T05:44:02.611Z,6.47
2019-02-21T05:46:30.238Z,6.42
2019-02-21T05:48:57.899Z,6.47
2019-02-21T05:51:25.557Z,6.43
2019-02-21T05:53:55.774Z,6.44
2019-02-21T05:56:26.259Z,6.47
2019-02-21T05:58:53.997Z,6.48
2019-02-21T06:01:27.177Z,6.51
2019-02-21T06:03:57.377Z,6.52
2019-02-21T06:06:27.558Z,6.51
2019-02-21T06:08:57.989Z,6.57
2019-02-21T06:11:25.639Z,6.52
2019-02-21T06:13:58.842Z,6.48
2019-02-21T06:16:33.055Z,6.51
2019-02-21T06:19:03.324Z,6.53
2019-02-21T06:21:36.619Z,6.56
2019-02-21T06:24:06.805Z,6.60
2019-02-21T06:26:34.457Z,6.61
2019-02-21T06:29:04.626Z,6.63
2019-02-21T06:31:30.384Z,6.65
2019-02-21T06:33:56.140Z,6.60
2019-02-21T06:36:21.884Z,6.57
2019-02-21T06:38:47.649Z,6.57
2019-02-21T06:41:13.385Z,6.57
2019-02-21T06:43:39.130Z,6.64
2019-02-21T06:46:04.892Z,6.65
2019-02-21T06:48:30.646Z,6.69
2019-02-21T06:50:56.397Z,6.69
2019-02-21T06:53:22.166Z,6.72
2019-02-21T06:55:47.936Z,6.76
2019-02-21T06:58:13.687Z,6.77
2019-02-21T07:00:39.443Z,6.81
2019-02-21T07:03:15.126Z,6.77
2019-02-21T07:05:32.898Z,6.80
2019-02-21T07:07:58.653Z,6.80
2019-02-21T07:10:24.419Z,6.81
2019-02-21T07:12:50.162Z,6.81
2019-02-21T07:15:15.933Z,6.83
2019-02-21T07:17:48.783Z,6.79
2019-02-21T07:20:09.333Z,6.80
2019-02-21T07:22:35.081Z,6.85
2019-02-21T07:25:02.735Z,6.88
2019-02-21T07:27:28.495Z,6.89
2019-02-21T07:29:54.247Z,6.96
2019-02-21T07:32:19.991Z,6.90
2019-02-21T07:34:45.753Z,6.94
2019-02-21T07:37:18.611Z,6.97
2019-02-21T07:39:39.160Z,6.98
2019-02-21T07:42:04.917Z,6.94
2019-02-21T07:44:30.667Z,6.95
2019-02-21T07:46:56.431Z,6.97
2019-02-21T07:49:22.174Z,6.93
2019-02-21T07:51:47.952Z,6.91
2019-02-21T07:54:13.699Z,6.91
2019-02-21T07:56:42.310Z,6.93
2019-02-21T07:59:07.161Z,6.95
2019-02-21T08:01:32.884Z,6.90
2019-02-21T08:03:58.635Z,6.91
2019-02-21T08:06:24.387Z,6.89
2019-02-21T08:08:50.138Z,6.91
2019-02-21T08:11:15.902Z,6.92
2019-02-21T08:13:41.654Z,6.94
2019-02-21T08:16:07.419Z,6.93
2019-02-21T08:18:33.187Z,6.98
2019-02-21T08:20:58.952Z,6.96
2019-02-21T08:23:24.707Z,7.02
2019-02-21T08:25:50.451Z,7.05
2019-02-21T08:28:16.213Z,7.07
2019-02-21T08:30:41.959Z,7.03
2019-02-21T08:33:09.687Z,7.10
2019-02-21T08:35:35.444Z,7.14
2019-02-21T08:38:01.205Z,7.15
2019-02-21T08:40:26.978Z,7.18
2019-02-21T08:42:52.718Z,7.19
2019-02-21T08:45:18.457Z,7.23
2019-02-21T08:47:44.220Z,7.26
2019-02-21T08:50:09.975Z,7.21
2019-02-21T08:52:35.778Z,7.33
2019-02-21T08:55:01.505Z,7.35
2019-02-21T08:57:27.253Z,7.47
2019-02-21T08:59:53.002Z,7.58
2019-02-21T09:02:18.760Z,7.63
2019-02-21T09:04:44.506Z,7.72
2019-02-21T09:07:10.268Z,7.70
2019-02-21T09:09:36.021Z,7.72
2019-02-21T09:12:02.198Z,7.61
2019-02-21T09:14:27.935Z,7.57
2019-02-21T09:16:53.689Z,7.57
2019-02-21T09:19:19.445Z,7.71
2019-02-21T09:21:45.187Z,7.75
2019-02-21T09:24:13.633Z,7.85
2019-02-21T09:26:38.608Z,8.07
2019-02-21T09:29:04.370Z,8.07
2019-02-21T09:31:30.118Z,8.35
2019-02-21T09:33:56.079Z,8.60
2019-02-21T09:36:21.821Z,8.56
2019-02-21T09:38:47.656Z,8.55
2019-02-21T09:41:13.435Z,8.48
2019-02-21T09:43:39.197Z,8.28
2019-02-21T09:46:04.942Z,8.28
2019-02-21T09:48:30.702Z,8.22
2019-02-21T09:50:56.445Z,8.07
2019-02-21T09:53:22.230Z,7.99
2019-02-21T09:55:50.286Z,8.06
2019-02-21T09:58:15.654Z,8.11
2019-02-21T10:00:41.392Z,8.00
2019-02-21T10:03:07.161Z,7.93
2019-02-21T10:05:32.918Z,7.95
2019-02-21T10:07:58.660Z,7.92
2019-02-21T10:10:24.413Z,7.93
2019-02-21T10:12:50.170Z,7.93
2019-02-21T10:15:15.926Z,7.92
2019-02-21T10:17:41.676Z,7.92
2019-02-21T10:20:09.734Z,7.94
2019-02-21T10:22:35.588Z,7.91
2019-02-21T10:25:01.357Z,7.92
2019-02-21T10:27:27.106Z,7.78
2019-02-21T10:29:52.862Z,7.77
2019-02-21T10:32:18.609Z,7.81
2019-02-21T10:34:44.370Z,7.74
2019-02-21T10:37:10.116Z,7.73
2019-02-21T10:39:35.878Z,7.81
2019-02-21T10:42:01.626Z,7.80
2019-02-21T10:44:27.399Z,7.89
2019-02-21T10:46:53.150Z,7.99
2019-02-21T10:49:18.909Z,8.01
2019-02-21T10:51:44.661Z,7.98
2019-02-21T10:54:10.433Z,8.17
2019-02-21T10:56:36.188Z,8.20
2019-02-21T10:59:01.972Z,8.22
2019-02-21T11:01:27.722Z,8.23
2019-02-21T11:03:53.467Z,8.18
2019-02-21T11:06:19.230Z,8.23
2019-02-21T11:08:44.976Z,8.25
2019-02-21T11:11:10.744Z,8.22
2019-02-21T11:13:36.485Z,8.24
2019-02-21T11:16:02.247Z,8.13
2019-02-21T11:18:27.995Z,8.04
2019-02-21T11:20:53.753Z,8.05
2019-02-21T11:23:19.496Z,8.18
2019-02-21T11:25:45.252Z,8.22
2019-02-21T11:28:11.006Z,8.28
2019-02-21T11:30:36.755Z,8.11
2019-02-21T11:33:02.506Z,8.12
2019-02-21T11:35:28.266Z,8.20
2019-02-21T11:37:54.111Z,8.27
2019-02-21T11:40:19.867Z,8.25
2019-02-21T11:42:45.710Z,8.30
2019-02-21T11:45:15.435Z,8.40
2019-02-21T11:47:41.181Z,8.39
2019-02-21T11:50:17.156Z,8.41
2019-02-21T11:52:42.934Z,8.31
2019-02-21T11:55:10.936Z,8.31
2019-02-21T11:57:36.704Z,8.33
2019-02-21T12:00:09.013Z,8.33
2019-02-21T12:02:38.870Z,8.23
2019-02-21T12:05:03.153Z,8.35
2019-02-21T12:07:28.920Z,8.35
2019-02-21T12:09:54.666Z,8.31
2019-02-21T12:12:20.422Z,8.25
2019-02-21T12:14:46.174Z,8.32
2019-02-21T12:17:11.929Z,8.30
2019-02-21T12:19:37.673Z,8.38
2019-02-21T12:22:03.440Z,8.26
2019-02-21T12:24:29.187Z,8.13
2019-02-21T12:26:54.949Z,8.19
2019-02-21T12:29:20.695Z,8.07
2019-02-21T12:31:46.534Z,8.07
2019-02-21T12:34:12.301Z,8.14
2019-02-21T12:36:38.058Z,8.20
2019-02-21T12:39:04.706Z,8.12
2019-02-21T12:41:30.487Z,7.97
2019-02-21T12:43:56.232Z,7.97
2019-02-21T12:46:21.981Z,8.01
2019-02-21T12:48:47.740Z,8.03
2019-02-21T12:51:13.479Z,8.07
2019-02-21T12:53:39.255Z,8.05
2019-02-21T12:56:05.016Z,7.97
2019-02-21T12:58:30.777Z,7.91
2019-02-21T13:00:56.527Z,7.89
2019-02-21T13:03:22.283Z,7.89
2019-02-21T13:05:48.031Z,7.91
2019-02-21T13:08:13.786Z,7.96
2019-02-21T13:10:39.548Z,7.99
2019-02-21T13:13:05.300Z,7.97
2019-02-21T13:15:31.051Z,8.02
2019-02-21T13:17:56.817Z,7.98
2019-02-21T13:20:22.551Z,8.01
2019-02-21T13:22:48.314Z,7.96
2019-02-21T13:25:15.267Z,7.88
2019-02-21T13:27:41.028Z,7.73
2019-02-21T13:30:09.185Z,7.78
2019-02-21T13:32:34.938Z,7.82
2019-02-21T13:35:00.693Z,7.83
2019-02-21T13:37:29.112Z,7.89
2019-02-21T13:39:54.106Z,7.92
2019-02-21T13:42:19.854Z,7.95
2019-02-21T13:44:45.614Z,7.95
2019-02-21T13:47:11.356Z,7.85
2019-02-21T13:49:37.122Z,7.86
2019-02-21T13:52:02.871Z,7.89
2019-02-21T13:54:28.660Z,7.85
2019-02-21T13:56:54.398Z,7.80
2019-02-21T13:59:20.174Z,7.81
2019-02-21T14:01:45.967Z,7.81
2019-02-21T14:04:11.696Z,7.83
2019-02-21T14:06:37.442Z,7.85
2019-02-21T14:09:04.305Z,7.86
2019-02-21T14:11:30.786Z,7.78
2019-02-21T14:13:56.632Z,7.77
2019-02-21T14:16:22.378Z,7.72
2019-02-21T14:18:48.147Z,7.69
2019-02-21T14:21:13.885Z,7.62
2019-02-21T14:23:39.653Z,7.65
2019-02-21T14:26:05.397Z,7.74
2019-02-21T14:28:31.147Z,7.76
2019-02-21T14:30:56.907Z,7.70
2019-02-21T14:33:22.656Z,7.72
2019-02-21T14:35:48.438Z,7.70
2019-02-21T14:38:14.176Z,7.68
2019-02-21T14:40:39.935Z,7.63
2019-02-21T14:43:05.844Z,7.60
2019-02-21T14:45:31.605Z,7.59
2019-02-21T14:47:57.349Z,7.63
2019-02-21T14:50:23.110Z,7.62
2019-02-21T14:52:48.875Z,7.65
2019-02-21T14:55:16.045Z,7.62
2019-02-21T14:57:41.797Z,7.55
2019-02-21T15:00:13.897Z,7.55
2019-02-21T15:02:39.654Z,7.53
2019-02-21T15:05:05.650Z,7.49
2019-02-21T15:07:31.414Z,7.49
2019-02-21T15:09:57.199Z,7.49
2019-02-21T15:12:22.968Z,7.51
2019-02-21T15:14:48.744Z,7.52
2019-02-21T15:17:14.502Z,7.54
2019-02-21T15:19:40.248Z,7.50
2019-02-21T15:22:06.074Z,7.51
2019-02-21T15:24:31.827Z,7.52
2019-02-21T15:27:08.170Z,7.55
2019-02-21T15:29:25.248Z,7.53
2019-02-21T15:31:51.015Z,7.49
2019-02-21T15:34:16.757Z,7.53
2019-02-21T15:36:42.540Z,7.49
2019-02-21T15:39:08.295Z,7.46
2019-02-21T15:41:34.043Z,7.46
2019-02-21T15:43:59.814Z,7.42
2019-02-21T15:46:25.590Z,7.43
2019-02-21T15:48:51.338Z,7.51
2019-02-21T15:51:17.092Z,7.42
2019-02-21T15:53:42.864Z,7.52
2019-02-21T15:56:08.635Z,7.51
2019-02-21T15:58:34.383Z,7.50
2019-02-21T16:01:00.165Z,7.47
2019-02-21T16:03:25.917Z,7.45
2019-02-21T16:05:51.660Z,7.38
2019-02-21T16:08:17.423Z,7.39
2019-02-21T16:10:43.166Z,7.36
2019-02-21T16:13:09.030Z,7.33
2019-02-21T16:15:35.163Z,7.39
2019-02-21T16:18:01.028Z,7.39
2019-02-21T16:20:26.807Z,7.37
2019-02-21T16:22:52.542Z,7.36
2019-02-21T16:25:23.854Z,7.36
2019-02-21T16:27:49.621Z,7.33
2019-02-21T16:30:15.381Z,7.27
2019-02-21T16:32:41.149Z,7.28
2019-02-21T16:35:09.498Z,7.29
2019-02-21T16:37:35.265Z,7.30
2019-02-21T16:40:01.331Z,7.25
2019-02-21T16:42:27.093Z,7.27
2019-02-21T16:44:52.851Z,7.26
2019-02-21T16:47:18.641Z,7.30
2019-02-21T16:49:44.386Z,7.28
2019-02-21T16:52:10.160Z,7.29
2019-02-21T16:54:35.917Z,7.24
2019-02-21T16:57:01.688Z,7.24
2019-02-21T16:59:27.447Z,7.26
2019-02-21T17:01:53.197Z,7.26
2019-02-21T17:04:18.950Z,7.25
2019-02-21T17:06:44.696Z,7.24
2019-02-21T17:09:10.456Z,7.21
2019-02-21T17:11:36.203Z,7.17
2019-02-21T17:14:02.067Z,7.17
2019-02-21T17:16:27.814Z,7.19
2019-02-21T17:18:55.972Z,7.18
2019-02-21T17:21:21.251Z,7.14
2019-02-21T17:23:46.991Z,7.16
2019-02-21T17:26:12.736Z,7.13
2019-02-21T17:28:38.504Z,7.17
2019-02-21T17:31:04.246Z,7.15
2019-02-21T17:33:30.010Z,7.15
2019-02-21T17:35:55.765Z,7.15
2019-02-21T17:38:21.532Z,7.16
2019-02-21T17:40:47.275Z,7.11
2019-02-21T17:43:13.033Z,7.10
2019-02-21T17:45:38.775Z,7.13
2019-02-21T17:48:04.541Z,7.19
2019-02-21T17:50:30.353Z,7.18
2019-02-21T17:52:56.055Z,7.09
2019-02-21T17:55:21.814Z,7.12
2019-02-21T17:57:47.664Z,7.12
2019-02-21T18:00:17.622Z,7.02
2019-02-21T18:02:43.394Z,7.09
2019-02-21T18:05:09.459Z,7.03
2019-02-21T18:07:36.685Z,7.02
2019-02-21T18:10:05.384Z,7.06
2019-02-21T18:12:31.138Z,7.09
2019-02-21T18:14:56.907Z,7.05
2019-02-21T18:17:22.660Z,7.06
2019-02-21T18:19:48.514Z,7.12
2019-02-21T18:22:14.266Z,7.06
2019-02-21T18:24:40.034Z,7.07
2019-02-21T18:27:05.782Z,7.07
2019-02-21T18:29:31.552Z,7.09
2019-02-21T18:31:57.297Z,7.11
2019-02-21T18:34:23.061Z,7.08
2019-02-21T18:36:48.799Z,7.01
2019-02-21T18:39:15.163Z,7.03
2019-02-21T18:41:40.918Z,7.06
2019-02-21T18:44:06.662Z,7.08
2019-02-21T18:46:32.422Z,7.05
2019-02-21T18:48:58.164Z,7.04
2019-02-21T18:51:23.931Z,7.05
2019-02-21T18:53:49.703Z,7.06
2019-02-21T18:56:15.458Z,7.07
2019-02-21T18:58:41.205Z,7.01
2019-02-21T19:01:06.961Z,7.00
2019-02-21T19:03:32.704Z,7.01
2019-02-21T19:05:58.468Z,7.00
2019-02-21T19:08:24.216Z,6.96
2019-02-21T19:10:49.984Z,6.99
2019-02-21T19:13:15.734Z,7.00
2019-02-21T19:15:41.707Z,6.93
2019-02-21T19:18:07.465Z,6.95
2019-02-21T19:20:33.334Z,6.94
2019-02-21T19:22:59.088Z,6.88
2019-02-21T19:25:24.846Z,6.95
2019-02-21T19:27:50.593Z,6.87
2019-02-21T19:30:25.536Z,6.90
2019-02-21T19:32:50.698Z,6.96
2019-02-21T19:35:16.465Z,6.90
2019-02-21T19:37:42.227Z,6.88
2019-02-21T19:40:08.868Z,6.89
2019-02-21T19:42:34.635Z,6.98
2019-02-21T19:45:00.396Z,6.95
2019-02-21T19:47:26.256Z,6.93
2019-02-21T19:49:52.347Z,6.95
2019-02-21T19:52:18.216Z,6.98
2019-02-21T19:54:44.055Z,6.98
2019-02-21T19:57:09.971Z,6.96
2019-02-21T19:59:35.844Z,6.99
2019-02-21T20:02:01.766Z,6.95
2019-02-21T20:04:27.652Z,6.99
2019-02-21T20:06:53.632Z,6.95
2019-02-21T20:09:19.913Z,6.97
2019-02-21T20:11:45.726Z,6.93
2019-02-21T20:14:11.579Z,6.97
2019-02-21T20:16:37.458Z,6.97
2019-02-21T20:19:03.415Z,6.99
2019-02-21T20:21:29.294Z,6.95
2019-02-21T20:23:55.140Z,7.00
2019-02-21T20:26:21.002Z,7.03
2019-02-21T20:28:46.777Z,7.01
2019-02-21T20:31:12.638Z,6.93
2019-02-21T20:33:38.473Z,6.94
2019-02-21T20:36:04.307Z,6.95
2019-02-21T20:38:32.365Z,6.98
2019-02-21T20:40:57.973Z,6.99
2019-02-21T20:43:23.843Z,7.01
2019-02-21T20:45:52.997Z,6.98
2019-02-21T20:48:17.540Z,6.97
2019-02-21T20:50:43.401Z,7.02
2019-02-21T20:53:09.551Z,6.91
2019-02-21T20:55:43.359Z,7.02
2019-02-21T20:58:03.180Z,7.01
2019-02-21T21:00:29.067Z,7.02
2019-02-21T21:02:54.910Z,7.03
2019-02-21T21:05:21.660Z,6.97
2019-02-21T21:07:48.498Z,6.97
2019-02-21T21:10:16.159Z,6.94
2019-02-21T21:12:42.054Z,7.00
2019-02-21T21:15:09.730Z,6.98
2019-02-21T21:17:35.660Z,6.97
2019-02-21T21:20:01.453Z,6.96
2019-02-21T21:22:27.256Z,6.99
2019-02-21T21:24:53.073Z,7.01
2019-02-21T21:27:18.879Z,7.02
2019-02-21T21:29:44.734Z,7.02
2019-02-21T21:32:10.484Z,7.04
2019-02-21T21:34:36.243Z,7.01
2019-02-21T21:37:01.987Z,7.04
2019-02-21T21:39:27.747Z,7.00
2019-02-21T21:41:53.512Z,6.96
2019-02-21T21:44:19.281Z,6.90
2019-02-21T21:46:45.137Z,6.86
2019-02-21T21:49:10.904Z,6.87
2019-02-21T21:51:36.659Z,6.85
2019-02-21T21:54:02.426Z,6.80
2019-02-21T21:56:28.194Z,6.85
2019-02-21T21:58:53.952Z,6.83
2019-02-21T22:01:19.713Z,6.76
2019-02-21T22:03:45.452Z,6.72
2019-02-21T22:06:11.219Z,6.75
2019-02-21T22:08:36.961Z,6.71
2019-02-21T22:11:02.720Z,6.73
2019-02-21T22:13:28.462Z,6.71
2019-02-21T22:15:54.226Z,6.73
2019-02-21T22:18:19.970Z,6.67
2019-02-21T22:20:45.734Z,6.68
2019-02-21T22:23:11.482Z,6.63
2019-02-21T22:25:37.428Z,6.67
2019-02-21T22:28:03.186Z,6.72
2019-02-21T22:30:28.934Z,6.73
2019-02-21T22:32:54.696Z,6.70
2019-02-21T22:35:20.441Z,6.73
2019-02-21T22:37:46.201Z,6.69
2019-02-21T22:40:20.751Z,6.71
2019-02-21T22:42:46.516Z,6.70
2019-02-21T22:45:12.270Z,6.71
2019-02-21T22:47:38.032Z,6.70
2019-02-21T22:50:10.296Z,6.67
2019-02-21T22:52:36.055Z,6.72
2019-02-21T22:55:09.636Z,6.70
2019-02-21T22:57:31.302Z,6.68
2019-02-21T22:59:57.057Z,6.67
2019-02-21T23:02:23.211Z,6.71
2019-02-21T23:04:55.930Z,6.72
2019-02-21T23:07:25.491Z,6.68
2019-02-21T23:09:51.239Z,6.67
2019-02-21T23:12:17.002Z,6.70
2019-02-21T23:14:42.748Z,6.70
2019-02-21T23:17:08.502Z,6.72
2019-02-21T23:19:34.344Z,6.70
2019-02-21T23:22:00.097Z,6.70
2019-02-21T23:24:25.851Z,6.69
2019-02-21T23:26:53.519Z,6.71
2019-02-21T23:29:19.258Z,6.70
2019-02-21T23:31:44.996Z,6.70
2019-02-21T23:34:18.423Z,6.74
2019-02-21T23:36:44.177Z,6.74
2019-02-21T23:39:09.934Z,6.75
2019-02-21T23:41:35.687Z,6.74
2019-02-21T23:44:01.455Z,6.72
2019-02-21T23:46:27.195Z,6.69
2019-02-21T23:48:52.950Z,6.70
2019-02-21T23:51:18.692Z,6.76
2019-02-21T23:53:44.539Z,6.73
2019-02-21T23:56:10.317Z,6.74
2019-02-21T23:58:36.084Z,6.79
